createdAt,value
2023-05-13T00:00:00.778Z,-176.54
2023-05-13T00:01:04.080Z,-127.9
2023-05-13T00:02:07.437Z,-43.42
2023-05-13T00:03:10.662Z,18.03
2023-05-13T00:04:13.932Z,5.23
2023-05-13T00:05:17.216Z,-20.38
2023-05-13T00:06:20.584Z,48.75
2023-05-13T00:07:23.771Z,48.75
2023-05-13T00:08:27.105Z,135.79
2023-05-13T00:09:30.375Z,74.35
2023-05-13T00:10:33.686Z,105.07
2023-05-13T00:11:36.005Z,66.67
2023-05-13T00:12:39.268Z,84.59
2023-05-13T00:13:42.556Z,74.35
2023-05-13T00:14:46.201Z,117.87
2023-05-13T00:15:49.450Z,117.87
2023-05-13T00:16:52.776Z,130.67
2023-05-13T00:17:56.029Z,110.19
2023-05-13T00:18:59.335Z,79.47
2023-05-13T00:20:02.752Z,135.79
2023-05-13T00:21:05.949Z,105.07
2023-05-13T00:22:09.333Z,92.27
2023-05-13T00:23:12.580Z,181.87
2023-05-13T00:24:15.825Z,156.27
2023-05-13T00:25:18.069Z,174.19
2023-05-13T00:26:21.450Z,189.55
2023-05-13T00:27:24.676Z,189.55
2023-05-13T00:28:27.950Z,181.87
2023-05-13T00:29:31.341Z,202.35
2023-05-13T00:30:34.527Z,181.87
2023-05-13T00:31:37.850Z,194.67
2023-05-13T00:32:41.205Z,181.87
2023-05-13T00:33:44.411Z,135.79
2023-05-13T00:34:47.724Z,181.87
2023-05-13T00:35:50.987Z,122.99
2023-05-13T00:36:54.328Z,135.79
2023-05-13T00:37:57.586Z,156.27
2023-05-13T00:38:59.928Z,122.99
2023-05-13T00:40:03.270Z,148.59
2023-05-13T00:41:06.474Z,169.07
2023-05-13T00:42:09.769Z,148.59
2023-05-13T00:43:13.060Z,161.39
2023-05-13T00:44:16.356Z,161.39
2023-05-13T00:45:19.655Z,194.67
2023-05-13T00:46:22.925Z,117.87
2023-05-13T00:47:26.234Z,181.87
2023-05-13T00:48:29.538Z,117.87
2023-05-13T00:49:32.802Z,143.47
2023-05-13T00:50:36.190Z,156.27
2023-05-13T00:51:39.398Z,135.79
2023-05-13T00:52:41.689Z,143.47
2023-05-13T00:53:44.989Z,161.39
2023-05-13T00:54:48.306Z,156.27
2023-05-13T00:55:51.569Z,189.55
2023-05-13T00:56:54.864Z,156.27
2023-05-13T00:57:58.145Z,135.79
2023-05-13T00:59:01.467Z,169.07
2023-05-13T01:00:04.742Z,169.07
2023-05-13T01:01:08.057Z,227.95
2023-05-13T01:02:11.336Z,194.67
2023-05-13T01:03:14.608Z,189.55
2023-05-13T01:05:21.198Z,220.27
2023-05-13T01:06:23.534Z,181.87
2023-05-13T01:07:26.807Z,220.27
2023-05-13T01:08:30.140Z,181.87
2023-05-13T01:09:33.410Z,233.07
2023-05-13T01:10:36.711Z,286.83
2023-05-13T01:11:40.412Z,215.15
2023-05-13T01:12:43.676Z,227.95
2023-05-13T01:13:47.038Z,220.27
2023-05-13T01:14:50.267Z,215.15
2023-05-13T01:15:53.571Z,202.35
2023-05-13T01:16:56.889Z,207.47
2023-05-13T01:18:00.134Z,248.43
2023-05-13T01:19:03.430Z,189.55
2023-05-13T01:20:05.742Z,189.55
2023-05-13T01:21:09.072Z,181.87
2023-05-13T01:22:12.353Z,248.43
2023-05-13T01:23:15.647Z,220.27
2023-05-13T01:24:18.910Z,156.27
2023-05-13T01:25:22.180Z,189.55
2023-05-13T01:26:25.494Z,240.75
2023-05-13T01:27:28.831Z,215.15
2023-05-13T01:28:32.076Z,148.59
2023-05-13T01:29:35.354Z,194.67
2023-05-13T01:30:38.690Z,215.15
2023-05-13T01:31:41.944Z,227.95
2023-05-13T01:32:45.247Z,194.67
2023-05-13T01:33:47.540Z,207.47
2023-05-13T01:34:50.865Z,227.95
2023-05-13T01:35:54.126Z,194.67
2023-05-13T01:36:57.426Z,194.67
2023-05-13T01:38:00.728Z,233.07
2023-05-13T01:39:04.037Z,220.27
2023-05-13T01:40:07.298Z,279.15
2023-05-13T01:41:10.587Z,274.03
2023-05-13T01:42:13.870Z,220.27
2023-05-13T01:43:17.190Z,261.23
2023-05-13T01:44:20.457Z,286.83
2023-05-13T01:45:23.740Z,314.99
2023-05-13T01:46:27.045Z,253.55
2023-05-13T01:47:29.345Z,286.83
2023-05-13T01:48:32.714Z,274.03
2023-05-13T01:49:35.957Z,286.83
2023-05-13T01:50:39.242Z,286.83
2023-05-13T01:51:42.573Z,299.63
2023-05-13T01:52:45.808Z,279.15
2023-05-13T01:53:49.107Z,286.83
2023-05-13T01:54:52.452Z,266.35
2023-05-13T01:55:55.681Z,279.15
2023-05-13T01:56:58.980Z,286.83
2023-05-13T01:58:02.344Z,274.03
2023-05-13T01:59:05.625Z,261.23
2023-05-13T02:00:08.850Z,248.43
2023-05-13T02:01:11.224Z,240.75
2023-05-13T02:02:14.453Z,294.51
2023-05-13T02:03:17.741Z,253.55
2023-05-13T02:04:21.049Z,-327.57
2023-05-13T02:05:24.329Z,314.99
2023-05-13T02:06:27.625Z,274.03
2023-05-13T02:07:30.906Z,274.03
2023-05-13T02:08:34.316Z,294.51
2023-05-13T02:09:37.507Z,274.03
2023-05-13T02:10:40.806Z,240.75
2023-05-13T02:11:44.121Z,286.83
2023-05-13T02:12:47.381Z,294.51
2023-05-13T02:13:50.698Z,261.23
2023-05-13T02:14:52.967Z,314.99
2023-05-13T02:15:56.281Z,320.11
2023-05-13T02:16:59.559Z,314.99
2023-05-13T02:18:02.890Z,-314.77
2023-05-13T02:19:06.245Z,-314.77
2023-05-13T02:20:09.431Z,-301.97
2023-05-13T02:21:12.731Z,-314.77
2023-05-13T02:22:16.023Z,-314.77
2023-05-13T02:23:19.333Z,-301.97
2023-05-13T02:24:22.594Z,-314.77
2023-05-13T02:25:25.893Z,-307.09
2023-05-13T02:26:29.199Z,314.99
2023-05-13T02:27:32.508Z,-245.65
2023-05-13T02:28:34.773Z,-314.77
2023-05-13T02:29:38.064Z,-294.29
2023-05-13T02:30:41.453Z,-281.49
2023-05-13T02:31:44.663Z,-301.97
2023-05-13T02:32:47.973Z,-281.49
2023-05-13T02:33:51.256Z,-327.57
2023-05-13T02:34:54.541Z,-281.49
2023-05-13T02:35:57.838Z,-273.81
2023-05-13T02:37:01.150Z,-273.81
2023-05-13T02:38:04.455Z,-240.53
2023-05-13T02:39:07.776Z,-261.01
2023-05-13T02:40:11.043Z,-314.77
2023-05-13T02:41:14.315Z,-245.65
2023-05-13T02:42:16.607Z,-266.13
2023-05-13T02:43:19.889Z,-197.01
2023-05-13T02:44:23.201Z,-261.01
2023-05-13T02:45:26.472Z,-253.33
2023-05-13T02:46:29.774Z,-225.17
2023-05-13T02:47:33.133Z,-273.81
2023-05-13T02:48:36.371Z,-168.85
2023-05-13T02:49:39.672Z,-204.69
2023-05-13T02:50:42.955Z,-281.49
2023-05-13T02:51:46.227Z,-240.53
2023-05-13T02:52:49.526Z,-220.05
2023-05-13T02:53:52.824Z,-148.37
2023-05-13T02:54:56.168Z,-184.21
2023-05-13T02:55:58.520Z,-253.33
2023-05-13T02:57:01.699Z,-261.01
2023-05-13T02:58:05.031Z,-212.37
2023-05-13T02:59:08.287Z,-184.21
2023-05-13T03:00:11.582Z,-204.69
2023-05-13T03:01:14.880Z,-184.21
2023-05-13T03:02:18.210Z,-212.37
2023-05-13T03:03:21.546Z,-163.73
2023-05-13T03:04:24.751Z,-148.37
2023-05-13T03:05:28.037Z,-148.37
2023-05-13T03:06:31.402Z,-176.53
2023-05-13T03:07:34.643Z,-99.73
2023-05-13T03:08:37.916Z,-176.53
2023-05-13T03:09:41.234Z,-184.21
2023-05-13T03:10:43.527Z,-176.53
2023-05-13T03:11:47.162Z,-76.69
2023-05-13T03:12:50.524Z,-163.73
2023-05-13T03:13:53.793Z,-76.69
2023-05-13T03:14:57.148Z,-184.21
2023-05-13T03:15:59.361Z,-140.69
2023-05-13T03:17:02.677Z,-176.53
2023-05-13T03:18:05.940Z,-135.57
2023-05-13T03:19:09.284Z,-135.57
2023-05-13T03:20:12.514Z,-140.69
2023-05-13T03:21:15.839Z,-156.05
2023-05-13T03:22:19.143Z,-204.69
2023-05-13T03:23:22.387Z,-191.89
2023-05-13T03:24:25.685Z,-191.89
2023-05-13T03:25:28.965Z,-176.53
2023-05-13T03:26:32.257Z,-220.05
2023-05-13T03:27:35.561Z,-204.69
2023-05-13T03:28:38.868Z,-135.57
2023-05-13T03:29:42.142Z,-184.21
2023-05-13T03:30:44.472Z,-191.89
2023-05-13T03:31:47.772Z,-140.69
2023-05-13T03:32:51.069Z,-135.57
2023-05-13T03:33:54.324Z,-120.21
2023-05-13T03:34:57.652Z,-120.21
2023-05-13T03:36:00.918Z,-168.85
2023-05-13T03:37:04.220Z,-120.21
2023-05-13T03:38:07.485Z,-107.41
2023-05-13T03:39:10.801Z,-135.57
2023-05-13T03:40:14.100Z,-20.37
2023-05-13T03:41:17.364Z,-99.73
2023-05-13T03:42:20.693Z,-112.53
2023-05-13T03:43:23.962Z,-12.69
2023-05-13T03:44:26.279Z,-92.05
2023-05-13T03:45:29.567Z,-99.73
2023-05-13T03:46:32.850Z,-48.53
2023-05-13T03:47:36.126Z,-40.85
2023-05-13T03:48:39.434Z,-48.53
2023-05-13T03:49:42.715Z,-20.37
2023-05-13T03:50:46.013Z,-71.57
2023-05-13T03:51:49.305Z,30.84
2023-05-13T03:52:52.645Z,-28.05
2023-05-13T03:53:55.891Z,-20.37
2023-05-13T03:54:59.185Z,10.36
2023-05-13T03:56:02.483Z,-48.53
2023-05-13T03:57:05.797Z,-28.05
2023-05-13T03:58:08.068Z,-28.05
2023-05-13T03:59:11.375Z,-48.53
2023-05-13T04:00:14.674Z,-40.85
2023-05-13T04:01:17.957Z,25.72
2023-05-13T04:02:21.290Z,-20.37
2023-05-13T04:03:24.636Z,-33.17
2023-05-13T04:04:27.829Z,2.68
2023-05-13T04:05:31.130Z,-20.37
2023-05-13T04:06:34.415Z,-33.17
2023-05-13T04:07:37.746Z,-28.05
2023-05-13T04:08:41.012Z,-40.85
2023-05-13T04:09:44.461Z,-5.01
2023-05-13T04:10:47.787Z,10.36
2023-05-13T04:11:50.078Z,18.04
2023-05-13T04:12:53.365Z,30.84
2023-05-13T04:13:56.760Z,76.92
2023-05-13T04:14:59.971Z,25.72
2023-05-13T04:16:03.227Z,38.52
2023-05-13T04:17:06.548Z,92.28
2023-05-13T04:18:09.861Z,18.04
2023-05-13T04:19:13.130Z,92.28
2023-05-13T04:20:16.444Z,69.24
2023-05-13T04:21:19.732Z,99.96
2023-05-13T04:22:23.014Z,84.6
2023-05-13T04:23:26.359Z,107.64
2023-05-13T04:24:29.587Z,76.92
2023-05-13T04:25:31.891Z,107.64
2023-05-13T04:26:35.220Z,92.28
2023-05-13T04:27:38.493Z,84.6
2023-05-13T04:28:41.756Z,69.24
2023-05-13T04:29:45.054Z,120.44
2023-05-13T04:30:48.369Z,115.32
2023-05-13T04:31:51.713Z,135.8
2023-05-13T04:32:54.940Z,128.12
2023-05-13T04:33:58.250Z,143.48
2023-05-13T04:35:01.568Z,128.12
2023-05-13T04:36:04.881Z,128.12
2023-05-13T04:37:08.097Z,135.8
2023-05-13T04:38:11.441Z,143.48
2023-05-13T04:39:13.701Z,189.56
2023-05-13T04:40:16.981Z,115.32
2023-05-13T04:41:20.289Z,166.52
2023-05-13T04:42:23.630Z,135.8
2023-05-13T04:43:26.901Z,135.8
2023-05-13T04:44:30.202Z,181.88
2023-05-13T04:45:33.441Z,143.48
2023-05-13T04:46:36.756Z,197.24
2023-05-13T04:47:40.141Z,174.2
2023-05-13T04:48:43.428Z,158.84
2023-05-13T04:49:46.608Z,174.2
2023-05-13T04:50:49.959Z,158.84
2023-05-13T04:51:53.243Z,143.48
2023-05-13T04:52:55.500Z,166.52
2023-05-13T04:53:58.843Z,189.56
2023-05-13T04:55:02.148Z,158.84
2023-05-13T04:56:05.389Z,181.88
2023-05-13T04:57:08.694Z,197.24
2023-05-13T04:58:11.985Z,151.16
2023-05-13T04:59:15.281Z,174.2
2023-05-13T05:00:18.567Z,220.28
2023-05-13T05:01:21.838Z,212.6
2023-05-13T05:02:25.192Z,204.92
2023-05-13T05:03:28.445Z,243.32
2023-05-13T05:04:31.719Z,268.92
2023-05-13T05:05:34.999Z,243.32
2023-05-13T05:06:37.346Z,227.96
2023-05-13T05:07:40.642Z,276.6
2023-05-13T05:08:43.900Z,235.64
2023-05-13T05:09:47.213Z,284.28
2023-05-13T05:10:50.593Z,284.28
2023-05-13T05:11:53.765Z,299.64
2023-05-13T05:12:57.147Z,299.64
2023-05-13T05:14:00.400Z,291.96
2023-05-13T05:15:03.686Z,299.64
2023-05-13T05:16:06.954Z,299.64
2023-05-13T05:17:10.239Z,235.64
2023-05-13T05:18:13.591Z,299.64
2023-05-13T05:19:16.858Z,299.64
2023-05-13T05:20:19.137Z,268.92
2023-05-13T05:21:22.530Z,299.64
2023-05-13T05:22:25.728Z,261.24
2023-05-13T05:23:29.042Z,-307.08
2023-05-13T05:24:32.327Z,284.28
2023-05-13T05:25:35.599Z,-307.08
2023-05-13T05:26:38.867Z,284.28
2023-05-13T05:27:42.194Z,307.32
2023-05-13T05:28:45.471Z,315
2023-05-13T05:29:48.755Z,268.92
2023-05-13T05:30:52.056Z,299.64
2023-05-13T05:31:55.406Z,-307.08
2023-05-13T05:32:58.630Z,-276.36
2023-05-13T05:34:00.937Z,-317.32
2023-05-13T05:35:04.261Z,-325
2023-05-13T05:36:07.542Z,-299.4
2023-05-13T05:37:10.811Z,307.32
2023-05-13T05:38:14.142Z,-299.4
2023-05-13T05:39:17.410Z,-325
2023-05-13T05:40:20.695Z,-325
2023-05-13T05:41:24.048Z,299.64
2023-05-13T05:42:27.300Z,-261
2023-05-13T05:43:30.599Z,-276.36
2023-05-13T05:44:33.862Z,-268.68
2023-05-13T05:45:37.144Z,322.68
2023-05-13T05:46:40.463Z,-276.36
2023-05-13T05:47:42.770Z,-250.76
2023-05-13T05:48:46.044Z,-299.4
2023-05-13T05:49:49.359Z,-261
2023-05-13T05:50:52.643Z,-291.72
2023-05-13T05:51:55.927Z,-268.68
2023-05-13T05:52:59.216Z,-243.08
2023-05-13T05:54:02.494Z,-284.04
2023-05-13T05:55:05.811Z,-243.08
2023-05-13T05:56:09.089Z,-284.04
2023-05-13T05:57:12.381Z,-235.4
2023-05-13T05:58:15.667Z,-261
2023-05-13T05:59:19.021Z,-250.76
2023-05-13T06:00:22.266Z,-268.68
2023-05-13T06:01:24.617Z,-209.8
2023-05-13T06:02:27.857Z,-179.08
2023-05-13T06:03:31.167Z,-268.68
2023-05-13T06:04:34.486Z,-307.08
2023-05-13T06:05:37.776Z,-276.36
2023-05-13T06:06:41.130Z,-307.08
2023-05-13T06:07:44.324Z,-268.68
2023-05-13T06:08:47.613Z,-276.36
2023-05-13T06:09:50.906Z,-284.04
2023-05-13T06:10:54.216Z,-317.32
2023-05-13T06:11:57.526Z,-250.76
2023-05-13T06:13:00.844Z,-284.04
2023-05-13T06:14:04.137Z,-235.4
2023-05-13T06:15:06.433Z,-307.08
2023-05-13T06:16:09.660Z,-235.4
2023-05-13T06:17:13.022Z,-227.72
2023-05-13T06:18:16.349Z,-243.08
2023-05-13T06:19:19.550Z,-227.72
2023-05-13T06:20:22.849Z,-261
2023-05-13T06:21:26.135Z,-284.04
2023-05-13T06:22:29.454Z,-243.08
2023-05-13T06:23:32.799Z,-243.08
2023-05-13T06:24:36.052Z,-235.4
2023-05-13T06:25:39.286Z,-202.12
2023-05-13T06:26:42.606Z,-209.8
2023-05-13T06:27:45.903Z,238.21
2023-05-13T06:28:48.236Z,-301.98
2023-05-13T06:29:51.474Z,156.27
2023-05-13T06:30:54.768Z,-240.53
2023-05-13T06:31:58.081Z,-84.37
2023-05-13T06:33:01.361Z,-63.89
2023-05-13T06:34:04.697Z,69.24
2023-05-13T06:35:07.964Z,151.16
2023-05-13T06:36:11.262Z,235.64
2023-05-13T06:37:14.525Z,261.24
2023-05-13T06:38:17.836Z,315
2023-05-13T06:39:21.098Z,307.32
2023-05-13T06:40:24.443Z,315
2023-05-13T06:41:27.710Z,204.92
2023-05-13T06:42:30.005Z,299.64
2023-05-13T06:43:33.473Z,-284.04
2023-05-13T06:44:36.573Z,299.64
2023-05-13T06:45:39.875Z,261.24
2023-05-13T06:46:43.195Z,-317.32
2023-05-13T06:47:45.489Z,-307.08
2023-05-13T06:48:48.792Z,284.28
2023-05-13T06:49:52.063Z,-291.72
2023-05-13T06:50:55.365Z,315
2023-05-13T06:51:58.650Z,-284.04
2023-05-13T06:53:01.944Z,-250.76
2023-05-13T06:54:05.290Z,-276.36
2023-05-13T06:55:08.572Z,-261
2023-05-13T06:56:11.897Z,-268.68
2023-05-13T06:57:15.125Z,-235.4
2023-05-13T06:58:18.399Z,-220.04
2023-05-13T06:59:21.687Z,-220.04
2023-05-13T07:00:24.997Z,-209.8
2023-05-13T07:01:27.303Z,-179.08
2023-05-13T07:02:30.577Z,-94.6
2023-05-13T07:03:33.874Z,-161.16
2023-05-13T07:04:37.170Z,-120.2
2023-05-13T07:05:40.456Z,-127.88
2023-05-13T07:06:43.738Z,-86.92
2023-05-13T07:07:47.044Z,-112.52
2023-05-13T07:08:50.331Z,-94.6
2023-05-13T07:09:53.661Z,-120.2
2023-05-13T07:10:56.971Z,-61.32
2023-05-13T07:12:00.221Z,-102.28
2023-05-13T07:13:03.517Z,-127.88
2023-05-13T07:14:06.811Z,-69
2023-05-13T07:15:09.140Z,-25.48
2023-05-13T07:16:12.396Z,-51.08
2023-05-13T07:17:15.690Z,-69
2023-05-13T07:18:18.983Z,-51.08
2023-05-13T07:19:22.253Z,-61.32
2023-05-13T07:20:25.595Z,-10.12
2023-05-13T07:21:28.835Z,-43.4
2023-05-13T07:22:32.182Z,-10.12
2023-05-13T07:23:35.423Z,-10.12
2023-05-13T07:24:38.821Z,0.13
2023-05-13T07:25:42.011Z,7.81
2023-05-13T07:26:45.308Z,59.01
2023-05-13T07:27:48.883Z,25.73
2023-05-13T07:28:51.186Z,15.49
2023-05-13T07:29:54.484Z,59.01
2023-05-13T07:30:57.870Z,51.33
2023-05-13T07:32:01.084Z,41.09
2023-05-13T07:33:04.380Z,51.33
2023-05-13T07:34:07.670Z,69.25
2023-05-13T07:35:10.981Z,130.69
2023-05-13T07:36:14.248Z,112.77
2023-05-13T07:37:17.554Z,102.53
2023-05-13T07:38:20.825Z,76.93
2023-05-13T07:39:24.125Z,227.97
2023-05-13T07:40:27.413Z,2.56
2023-05-13T07:41:30.717Z,238.21
2023-05-13T07:42:33.015Z,245.89
2023-05-13T07:43:36.356Z,220.29
2023-05-13T07:44:39.599Z,156.29
2023-05-13T07:45:43.044Z,238.21
2023-05-13T07:46:46.383Z,202.37
2023-05-13T07:47:49.606Z,245.89
2023-05-13T07:48:52.911Z,274.05
2023-05-13T07:49:56.198Z,2.56
2023-05-13T07:50:59.486Z,148.61
2023-05-13T07:52:02.777Z,256.13
2023-05-13T07:53:06.094Z,227.97
2023-05-13T07:54:09.379Z,312.45
2023-05-13T07:55:12.756Z,291.97
2023-05-13T07:56:14.993Z,312.45
2023-05-13T07:57:18.274Z,302.21
2023-05-13T07:58:21.548Z,274.05
2023-05-13T07:59:24.844Z,256.13
2023-05-13T08:00:28.180Z,-324.99
2023-05-13T08:01:31.498Z,302.21
2023-05-13T08:02:34.798Z,291.97
2023-05-13T08:03:38.005Z,-324.99
2023-05-13T08:04:41.324Z,-324.99
2023-05-13T08:05:44.628Z,312.45
2023-05-13T08:06:47.947Z,291.97
2023-05-13T08:07:51.194Z,-307.07
2023-05-13T08:08:54.472Z,302.21
2023-05-13T08:09:56.782Z,-307.07
2023-05-13T08:11:00.092Z,256.13
2023-05-13T08:12:03.378Z,320.13
2023-05-13T08:13:06.679Z,302.21
2023-05-13T08:14:09.951Z,-296.83
2023-05-13T08:15:13.241Z,-222.59
2023-05-13T08:16:16.532Z,-278.91
2023-05-13T08:17:19.864Z,-163.71
2023-05-13T08:18:23.133Z,-222.59
2023-05-13T08:19:26.504Z,-163.71
2023-05-13T08:20:29.800Z,-156.03
2023-05-13T08:21:32.999Z,-156.03
2023-05-13T08:22:36.337Z,-194.43
2023-05-13T08:23:38.605Z,-145.79
2023-05-13T08:24:41.890Z,-145.79
2023-05-13T08:25:45.183Z,-135.55
2023-05-13T08:26:48.469Z,-194.43
2023-05-13T08:27:51.795Z,-230.27
2023-05-13T08:28:55.166Z,-173.95
2023-05-13T08:29:58.385Z,-163.71
2023-05-13T08:31:01.641Z,-173.95
2023-05-13T08:32:04.957Z,-230.27
2023-05-13T08:33:08.222Z,-222.59
2023-05-13T08:34:11.521Z,-250.75
2023-05-13T08:35:14.810Z,-260.99
2023-05-13T08:36:18.100Z,-230.27
2023-05-13T08:37:20.423Z,-222.59
2023-05-13T08:38:23.690Z,-230.27
2023-05-13T08:39:26.984Z,-250.75
2023-05-13T08:40:30.300Z,-289.15
2023-05-13T08:41:33.605Z,-289.15
2023-05-13T08:42:36.846Z,-250.75
2023-05-13T08:43:40.165Z,-278.91
2023-05-13T08:44:43.489Z,-296.83
2023-05-13T08:45:46.763Z,-212.35
2023-05-13T08:46:50.179Z,-260.99
2023-05-13T08:47:53.437Z,-212.35
2023-05-13T08:48:56.625Z,-222.59
2023-05-13T08:49:59.936Z,-202.11
2023-05-13T08:51:02.216Z,-240.51
2023-05-13T08:52:05.504Z,-230.27
2023-05-13T08:53:08.829Z,-250.75
2023-05-13T08:54:12.109Z,-212.35
2023-05-13T08:55:15.381Z,-156.03
2023-05-13T08:56:18.691Z,-194.43
2023-05-13T08:57:21.976Z,-212.35
2023-05-13T08:58:25.302Z,-173.95
2023-05-13T08:59:28.546Z,-156.03
2023-05-13T09:00:31.849Z,-145.79
2023-05-13T09:01:35.152Z,-135.55
2023-05-13T09:02:38.417Z,-125.31
2023-05-13T09:03:41.776Z,-135.55
2023-05-13T09:04:44.075Z,-173.95
2023-05-13T09:05:47.322Z,-184.19
2023-05-13T09:06:50.628Z,-86.91
2023-05-13T09:07:53.907Z,-202.11
2023-05-13T09:08:57.218Z,-202.11
2023-05-13T09:10:00.491Z,-184.19
2023-05-13T09:11:03.850Z,-173.95
2023-05-13T09:12:07.160Z,-156.03
2023-05-13T09:13:10.398Z,-212.35
2023-05-13T09:14:13.655Z,-212.35
2023-05-13T09:15:16.974Z,-230.27
2023-05-13T09:16:20.330Z,-222.59
2023-05-13T09:17:23.530Z,-240.51
2023-05-13T09:18:25.826Z,-250.75
2023-05-13T09:19:29.135Z,-222.59
2023-05-13T09:20:32.560Z,-212.35
2023-05-13T09:21:35.801Z,-145.79
2023-05-13T09:22:39.221Z,-230.27
2023-05-13T09:23:42.497Z,-163.71
2023-05-13T09:24:45.757Z,-184.19
2023-05-13T09:25:48.872Z,-107.39
2023-05-13T09:26:52.359Z,-135.55
2023-05-13T09:27:55.595Z,-86.91
2023-05-13T09:28:58.833Z,-86.91
2023-05-13T09:30:02.047Z,-115.07
2023-05-13T09:31:05.350Z,-107.39
2023-05-13T09:32:07.812Z,-76.67
2023-05-13T09:33:10.935Z,-48.51
2023-05-13T09:34:14.241Z,-97.15
2023-05-13T09:35:17.592Z,-56.19
2023-05-13T09:36:20.923Z,-56.19
2023-05-13T09:37:24.139Z,-56.19
2023-05-13T09:38:27.519Z,-48.51
2023-05-13T09:39:30.730Z,-56.19
2023-05-13T09:40:34.061Z,-76.67
2023-05-13T09:41:37.406Z,-56.19
2023-05-13T09:42:40.648Z,2.7
2023-05-13T09:43:43.946Z,-38.27
2023-05-13T09:44:47.192Z,-97.15
2023-05-13T09:45:49.456Z,-76.67
2023-05-13T09:46:52.893Z,-194.43
2023-05-13T09:47:56.067Z,-145.79
2023-05-13T09:48:59.336Z,-222.59
2023-05-13T09:50:02.631Z,-202.11
2023-05-13T09:51:05.950Z,2.56
2023-05-13T09:52:09.211Z,-260.99
2023-05-13T09:53:12.514Z,-250.75
2023-05-13T09:54:15.809Z,-194.43
2023-05-13T09:55:19.099Z,-212.35
2023-05-13T09:56:22.405Z,-230.27
2023-05-13T09:57:25.737Z,-184.19
2023-05-13T09:58:28.975Z,-173.95
2023-05-13T09:59:31.268Z,-135.55
2023-05-13T10:00:34.574Z,-173.95
2023-05-13T10:01:37.849Z,-202.11
2023-05-13T10:02:41.161Z,-163.71
2023-05-13T10:03:44.433Z,-202.11
2023-05-13T10:04:47.882Z,-115.07
2023-05-13T10:05:51.163Z,-194.43
2023-05-13T10:06:54.378Z,-202.11
2023-05-13T10:07:57.700Z,-268.67
2023-05-13T10:09:00.915Z,-184.19
2023-05-13T10:10:04.201Z,-56.19
2023-05-13T10:11:07.618Z,-156.03
2023-05-13T10:12:10.813Z,-135.55
2023-05-13T10:13:13.114Z,-156.03
2023-05-13T10:14:16.435Z,-184.19
2023-05-13T10:15:19.726Z,-156.03
2023-05-13T10:16:22.954Z,-173.95
2023-05-13T10:17:26.279Z,-163.71
2023-05-13T10:19:32.835Z,-156.03
2023-05-13T10:20:35.156Z,-163.71
2023-05-13T10:21:38.456Z,-145.79
2023-05-13T10:22:41.739Z,-156.03
2023-05-13T10:23:45.032Z,-173.95
2023-05-13T10:24:48.331Z,-212.35
2023-05-13T10:25:51.641Z,-202.11
2023-05-13T10:26:54.936Z,-194.43
2023-05-13T10:27:58.205Z,-212.35
2023-05-13T10:29:01.487Z,-145.79
2023-05-13T10:30:04.785Z,-222.59
2023-05-13T10:31:08.101Z,-156.03
2023-05-13T10:32:11.430Z,-212.35
2023-05-13T10:33:14.669Z,-268.67
2023-05-13T10:34:16.962Z,-268.67
2023-05-13T10:35:20.266Z,-268.67
2023-05-13T10:36:23.581Z,-268.67
2023-05-13T10:37:26.842Z,-289.15
2023-05-13T10:38:30.157Z,-260.99
2023-05-13T10:39:33.432Z,-250.75
2023-05-13T10:40:36.714Z,-296.83
2023-05-13T10:41:40.000Z,320.13
2023-05-13T10:42:43.313Z,291.97
2023-05-13T10:43:47.017Z,-296.83
2023-05-13T10:44:50.270Z,-289.15
2023-05-13T10:45:53.576Z,-324.99
2023-05-13T10:46:57.020Z,-268.67
2023-05-13T10:47:59.161Z,-296.83
2023-05-13T10:49:02.520Z,-260.99
2023-05-13T10:50:05.767Z,-115.07
2023-05-13T10:51:09.060Z,-7.55
2023-05-13T10:52:12.363Z,112.78
2023-05-13T10:53:15.610Z,312.46
2023-05-13T10:54:18.919Z,-245.62
2023-05-13T10:55:22.208Z,-235.38
2023-05-13T10:56:25.498Z,-255.86
2023-05-13T10:57:28.826Z,-168.82
2023-05-13T10:58:32.165Z,-268.66
2023-05-13T10:59:35.372Z,-225.14
2023-05-13T11:00:38.677Z,291.98
2023-05-13T11:01:40.982Z,207.5
2023-05-13T11:02:44.274Z,291.98
2023-05-13T11:03:47.577Z,-181.62
2023-05-13T11:04:50.849Z,-212.34
2023-05-13T11:05:54.146Z,-322.42
2023-05-13T11:06:57.424Z,-268.66
2023-05-13T11:08:00.745Z,-225.14
2023-05-13T11:09:04.035Z,-322.42
2023-05-13T11:10:07.319Z,-322.42
2023-05-13T11:11:10.608Z,322.7
2023-05-13T11:12:13.904Z,248.46
2023-05-13T11:13:17.193Z,258.7
2023-05-13T11:14:20.588Z,279.18
2023-05-13T11:15:22.777Z,291.98
2023-05-13T11:16:26.080Z,291.98
2023-05-13T11:17:29.413Z,312.46
2023-05-13T11:18:32.663Z,-322.42
2023-05-13T11:19:36.046Z,-322.42
2023-05-13T11:20:39.258Z,291.98
2023-05-13T11:21:42.585Z,-322.42
2023-05-13T11:22:45.833Z,238.22
2023-05-13T11:23:49.134Z,-322.42
2023-05-13T11:24:52.475Z,302.22
2023-05-13T11:25:55.718Z,248.46
2023-05-13T11:26:59.016Z,238.22
2023-05-13T11:28:02.355Z,143.5
2023-05-13T11:29:04.608Z,197.26
2023-05-13T11:30:07.874Z,143.5
2023-05-13T11:31:11.195Z,143.5
2023-05-13T11:32:14.500Z,153.74
2023-05-13T11:33:17.767Z,112.78
2023-05-13T11:34:21.067Z,197.26
2023-05-13T11:35:24.361Z,197.26
2023-05-13T11:36:27.639Z,174.22
2023-05-13T11:37:31.010Z,143.5
2023-05-13T11:38:34.236Z,315.16
2023-05-13T11:39:37.532Z,112.78
2023-05-13T11:40:40.819Z,163.98
2023-05-13T11:41:44.409Z,41.1
2023-05-13T11:42:46.707Z,41.1
2023-05-13T11:43:50.441Z,82.06
2023-05-13T11:44:53.729Z,153.74
2023-05-13T11:45:57.032Z,61.58
2023-05-13T11:47:00.356Z,82.06
2023-05-13T11:48:03.594Z,82.06
2023-05-13T11:49:06.893Z,92.3
2023-05-13T11:50:10.180Z,61.58
2023-05-13T11:51:13.491Z,102.54
2023-05-13T11:52:16.798Z,184.46
2023-05-13T11:53:20.097Z,268.94
2023-05-13T11:54:23.373Z,143.5
2023-05-13T11:55:26.667Z,207.5
2023-05-13T11:56:28.955Z,207.5
2023-05-13T11:57:32.246Z,238.22
2023-05-13T11:58:35.535Z,238.22
2023-05-13T11:59:38.845Z,227.98
2023-05-13T12:00:42.128Z,217.74
2023-05-13T12:01:45.454Z,207.5
2023-05-13T12:02:48.716Z,279.18
2023-05-13T12:03:52.088Z,-299.38
2023-05-13T12:04:55.302Z,248.46
2023-05-13T12:05:58.592Z,312.46
2023-05-13T12:07:01.883Z,207.5
2023-05-13T12:08:05.163Z,291.98
2023-05-13T12:09:08.471Z,197.26
2023-05-13T12:10:10.922Z,268.94
2023-05-13T12:11:14.071Z,227.98
2023-05-13T12:12:17.470Z,248.46
2023-05-13T12:13:20.652Z,207.5
2023-05-13T12:14:23.938Z,248.46
2023-05-13T12:15:27.396Z,258.7
2023-05-13T12:16:30.543Z,227.98
2023-05-13T12:17:33.929Z,184.46
2023-05-13T12:18:37.108Z,227.98
2023-05-13T12:19:40.418Z,248.46
2023-05-13T12:20:43.735Z,227.98
2023-05-13T12:21:46.993Z,268.94
2023-05-13T12:22:50.698Z,238.22
2023-05-13T12:23:53.051Z,227.98
2023-05-13T12:24:56.263Z,227.98
2023-05-13T12:25:59.706Z,248.46
2023-05-13T12:27:02.832Z,312.46
2023-05-13T12:28:06.130Z,279.18
2023-05-13T12:29:09.432Z,302.22
2023-05-13T12:30:12.710Z,291.98
2023-05-13T12:31:16.024Z,-312.18
2023-05-13T12:32:19.300Z,-312.18
2023-05-13T12:33:22.605Z,-312.18
2023-05-13T12:34:25.876Z,-255.86
2023-05-13T12:35:29.162Z,-322.42
2023-05-13T12:36:32.514Z,-299.38
2023-05-13T12:37:34.764Z,-278.9
2023-05-13T12:38:38.064Z,248.46
2023-05-13T12:39:41.366Z,312.46
2023-05-13T12:40:44.817Z,322.7
2023-05-13T12:41:48.094Z,-268.66
2023-05-13T12:42:51.426Z,291.98
2023-05-13T12:43:54.671Z,302.22
2023-05-13T12:44:57.962Z,-299.38
2023-05-13T12:46:01.251Z,291.98
2023-05-13T12:47:04.627Z,291.98
2023-05-13T12:48:07.868Z,279.18
2023-05-13T12:49:11.133Z,312.46
2023-05-13T12:50:14.437Z,248.46
2023-05-13T12:51:16.779Z,268.94
2023-05-13T12:52:20.082Z,258.7
2023-05-13T12:53:23.407Z,238.22
2023-05-13T12:54:26.639Z,268.94
2023-05-13T12:55:29.902Z,248.46
2023-05-13T12:56:33.181Z,312.46
2023-05-13T12:57:36.612Z,291.98
2023-05-13T12:58:39.774Z,291.98
2023-05-13T12:59:43.068Z,248.46
2023-05-13T13:00:46.362Z,268.94
2023-05-13T13:01:49.683Z,312.46
2023-05-13T13:02:52.953Z,302.22
2023-05-13T13:03:56.342Z,238.22
2023-05-13T13:04:58.553Z,279.18